Time;durP1;ratioP1;P1;durP2;ratioP2;P2;SDS_P1;SDS_P2;PMS_P1;PMS_P2;Temp;Humidity;BMP_temperature;BMP_pressure;BME280_temperature;BME280_humidity;BME280_pressure;Samples;Min_cycle;Max_cycle;Signal;HPM_P1;HPM_P2
2021/12/09 00:00:34;;;;;;;2.10;1.67;;;2.60;99.90;;;;;;4859122;29;20177;-76
2021/12/09 00:03:05;;;;;;;2.10;1.90;;;2.50;99.90;;;;;;4890996;29;20029;-77
2021/12/09 00:05:33;;;;;;;2.72;1.73;;;2.60;99.90;;;;;;4859425;29;20521;-76
2021/12/09 00:07:58;;;;;;;1.27;1.08;;;2.50;99.90;;;;;;4875313;29;20061;-76
2021/12/09 00:10:24;;;;;;;1.58;1.25;;;2.50;99.90;;;;;;4875693;29;20033;-77
2021/12/09 00:12:50;;;;;;;1.92;1.45;;;2.50;99.90;;;;;;4875384;29;20029;-77
2021/12/09 00:15:15;;;;;;;1.67;1.30;;;2.50;99.90;;;;;;4858794;29;20033;-76
2021/12/09 00:17:41;;;;;;;1.70;0.98;;;2.60;99.90;;;;;;4895049;29;20036;-80
2021/12/09 00:20:07;;;;;;;3.50;1.65;;;2.50;99.90;;;;;;4877558;29;20037;-78
2021/12/09 00:22:33;;;;;;;6.90;2.38;;;2.50;99.90;;;;;;4877793;29;20557;-77
2021/12/09 00:24:59;;;;;;;1.63;1.52;;;2.50;99.90;;;;;;4877904;29;20051;-76
2021/12/09 00:27:25;;;;;;;3.00;2.38;;;2.50;99.90;;;;;;4877254;29;20490;-77
2021/12/09 00:29:50;;;;;;;2.85;1.40;;;2.60;99.90;;;;;;4894413;29;20037;-77
2021/12/09 00:32:16;;;;;;;2.00;1.35;;;2.60;99.90;;;;;;4877155;29;20318;-78
2021/12/09 00:34:46;;;;;;;3.55;1.40;;;2.60;99.90;;;;;;4876937;29;20033;-76
2021/12/09 00:37:28;;;;;;;0.55;0.55;;;2.50;99.90;;;;;;4893916;29;20036;-76
2021/12/09 00:39:54;;;;;;;1.67;1.58;;;2.60;99.90;;;;;;4894000;29;20119;-76
2021/12/09 00:42:25;;;;;;;1.08;1.08;;;2.60;99.90;;;;;;4893971;29;20477;-77
2021/12/09 00:44:53;;;;;;;2.05;1.58;;;2.50;99.90;;;;;;4893512;29;20095;-77
2021/12/09 00:47:20;;;;;;;2.70;1.40;;;2.60;99.90;;;;;;4876468;29;20072;-77
2021/12/09 00:49:46;;;;;;;9.98;2.92;;;2.60;99.90;;;;;;4893716;29;20080;-76
2021/12/09 00:52:13;;;;;;;2.40;1.00;;;2.60;99.90;;;;;;4892601;29;20029;-77
2021/12/09 00:54:41;;;;;;;10.88;1.83;;;2.60;99.90;;;;;;4893401;29;20124;-77
2021/12/09 00:57:07;;;;;;;10.55;1.77;;;2.50;99.90;;;;;;4876979;29;20029;-76
2021/12/09 00:59:33;;;;;;;3.20;2.15;;;2.50;99.90;;;;;;4895379;29;20033;-79
2021/12/09 01:01:59;;;;;;;2.72;1.80;;;2.50;99.90;;;;;;4878840;29;20029;-77
2021/12/09 01:04:25;;;;;;;2.28;1.95;;;2.50;99.90;;;;;;4896290;29;20088;-77
2021/12/09 01:06:51;;;;;;;2.15;1.90;;;2.50;99.90;;;;;;4879221;29;20076;-78
2021/12/09 01:09:17;;;;;;;1.63;1.50;;;2.50;99.90;;;;;;4895945;29;20079;-77
2021/12/09 01:11:43;;;;;;;3.53;2.20;;;2.60;99.90;;;;;;4895941;29;20020;-78
2021/12/09 01:14:09;;;;;;;4.20;1.55;;;2.50;99.90;;;;;;4879298;29;20032;-77
2021/12/09 01:16:35;;;;;;;9.73;1.75;;;2.60;99.90;;;;;;4879265;29;20607;-77
2021/12/09 01:19:01;;;;;;;1.42;1.38;;;2.50;99.90;;;;;;4895587;29;20401;-77
2021/12/09 01:21:27;;;;;;;3.58;2.25;;;2.50;99.90;;;;;;4878615;29;20035;-77
2021/12/09 01:23:52;;;;;;;1.35;1.25;;;2.60;99.90;;;;;;4896000;29;20502;-77
2021/12/09 01:26:18;;;;;;;3.10;1.67;;;2.60;99.90;;;;;;4878582;29;20119;-76
2021/12/09 01:28:52;;;;;;;1.67;1.58;;;2.60;99.90;;;;;;4895781;29;20037;-77
2021/12/09 01:31:25;;;;;;;1.25;1.00;;;2.60;99.90;;;;;;4878922;29;20493;-79
2021/12/09 01:33:53;;;;;;;3.53;2.72;;;2.60;99.90;;;;;;4895591;29;20033;-78
2021/12/09 01:36:19;;;;;;;5.25;2.40;;;2.60;99.90;;;;;;4879082;29;20537;-77
2021/12/09 01:38:45;;;;;;;1.77;1.27;;;2.60;99.90;;;;;;4896054;29;20374;-77
2021/12/09 01:41:11;;;;;;;2.25;1.95;;;2.60;99.90;;;;;;4895945;29;20045;-77
2021/12/09 01:43:36;;;;;;;0.88;0.88;;;4.00;99.90;;;;;;4878751;29;20040;-78
2021/12/09 01:46:08;;;;;;;1.50;1.25;;;2.50;99.90;;;;;;4895462;29;20405;-76
2021/12/09 01:48:35;;;;;;;1.67;1.55;;;2.50;99.90;;;;;;4882263;29;20491;-76
2021/12/09 01:51:01;;;;;;;1.15;1.05;;;2.50;99.90;;;;;;4852092;29;20045;-76
2021/12/09 01:53:26;;;;;;;1.77;0.90;;;2.40;99.90;;;;;;4869694;29;20512;-78
2021/12/09 01:55:54;;;;;;;3.53;1.42;;;2.40;99.90;;;;;;4877083;29;20033;-77
2021/12/09 01:58:20;;;;;;;4.63;2.70;;;2.40;99.90;;;;;;4870958;29;20490;-77
2021/12/09 02:00:46;;;;;;;0.68;0.63;;;2.40;99.90;;;;;;4854694;29;20036;-77
2021/12/09 02:03:11;;;;;;;5.05;1.65;;;2.50;99.90;;;;;;4854108;29;20104;-77
2021/12/09 02:05:40;;;;;;;2.45;0.95;;;2.40;99.90;;;;;;4877715;29;20080;-76
2021/12/09 02:08:08;;;;;;;1.55;1.40;;;2.40;99.90;;;;;;4880221;29;20048;-78
2021/12/09 02:10:33;;;;;;;2.20;1.17;;;2.50;99.90;;;;;;4853123;29;20064;-77
2021/12/09 02:13:00;;;;;;;6.13;1.27;;;2.50;99.90;;;;;;4869755;29;20061;-76
2021/12/09 02:15:26;;;;;;;1.25;1.00;;;2.50;99.90;;;;;;4869266;29;20062;-76
2021/12/09 02:17:53;;;;;;;0.63;0.60;;;2.50;99.90;;;;;;4869204;29;20061;-77
2021/12/09 02:20:19;;;;;;;2.28;1.52;;;2.60;99.90;;;;;;4867592;29;20116;-77
2021/12/09 02:22:47;;;;;;;2.15;1.17;;;2.60;99.90;;;;;;4867037;29;20104;-76
2021/12/09 02:25:17;;;;;;;1.35;1.27;;;2.40;99.90;;;;;;4867799;29;20384;-76
2021/12/09 02:27:44;;;;;;;6.93;1.13;;;2.60;99.90;;;;;;4870525;29;20063;-77
2021/12/09 02:30:11;;;;;;;5.10;1.85;;;2.60;99.90;;;;;;4870053;29;20507;-77
2021/12/09 02:32:37;;;;;;;3.08;1.25;;;2.60;99.90;;;;;;4855220;29;20041;-77
2021/12/09 02:35:03;;;;;;;2.55;1.80;;;2.60;99.90;;;;;;4872716;29;20084;-78
2021/12/09 02:37:29;;;;;;;2.97;1.65;;;2.60;99.90;;;;;;4873281;29;20072;-79
2021/12/09 02:39:56;;;;;;;1.33;1.23;;;2.60;99.90;;;;;;4873441;29;20438;-77
2021/12/09 02:42:24;;;;;;;5.88;2.17;;;2.60;99.90;;;;;;4872614;29;20030;-77
2021/12/09 02:44:50;;;;;;;3.22;0.93;;;2.60;99.90;;;;;;4873194;29;20021;-76
2021/12/09 02:47:16;;;;;;;4.65;1.10;;;2.60;99.90;;;;;;4872711;29;20108;-77
2021/12/09 02:49:42;;;;;;;1.85;1.67;;;2.60;99.90;;;;;;4856477;29;20181;-77
2021/12/09 02:52:08;;;;;;;5.05;1.35;;;2.60;99.90;;;;;;4872661;29;20180;-78
2021/12/09 02:54:34;;;;;;;5.38;1.00;;;2.60;99.90;;;;;;4872834;29;20177;-77
2021/12/09 02:57:03;;;;;;;2.45;1.23;;;2.50;99.90;;;;;;4855793;29;20166;-77
2021/12/09 02:59:30;;;;;;;2.92;1.00;;;2.60;99.90;;;;;;4872158;29;20032;-77
2021/12/09 03:02:00;;;;;;;3.75;1.77;;;2.50;99.90;;;;;;4854995;29;20039;-76
2021/12/09 03:04:52;;;;;;;1.38;0.43;;;2.60;99.90;;;;;;4872408;29;20021;-77
2021/12/09 03:07:26;;;;;;;2.83;1.30;;;2.50;99.90;;;;;;4870258;29;20285;-76
2021/12/09 03:09:55;;;;;;;3.03;1.17;;;2.50;99.90;;;;;;4872025;29;20040;-77
2021/12/09 03:12:26;;;;;;;3.15;1.58;;;2.50;99.90;;;;;;4867637;29;20045;-77
2021/12/09 03:14:53;;;;;;;3.63;1.58;;;2.60;99.90;;;;;;4871963;29;20585;-77
2021/12/09 03:17:19;;;;;;;1.50;1.25;;;2.60;99.90;;;;;;4872612;29;20410;-77
2021/12/09 03:19:46;;;;;;;3.70;1.63;;;2.60;99.90;;;;;;4855496;29;20052;-77
2021/12/09 03:22:13;;;;;;;1.38;1.05;;;2.60;99.90;;;;;;4855647;29;20029;-77
2021/12/09 03:24:38;;;;;;;2.17;1.45;;;2.60;99.90;;;;;;4871889;29;20025;-76
2021/12/09 03:27:05;;;;;;;1.35;1.20;;;2.60;99.90;;;;;;4871804;29;20036;-77
2021/12/09 03:29:31;;;;;;;4.53;1.20;;;2.60;99.90;;;;;;4858428;29;20033;-77
2021/12/09 03:32:01;;;;;;;2.55;1.30;;;2.60;99.90;;;;;;4855164;29;20036;-79
2021/12/09 03:34:29;;;;;;;2.25;2.05;;;2.60;99.90;;;;;;4855565;29;20021;-77
2021/12/09 03:36:57;;;;;;;2.92;2.13;;;2.60;99.90;;;;;;4856022;29;20033;-76
2021/12/09 03:39:27;;;;;;;2.53;1.25;;;2.60;99.90;;;;;;4855406;29;20057;-77
2021/12/09 03:41:54;;;;;;;2.90;1.05;;;1.40;99.90;;;;;;4870662;29;20339;-79
2021/12/09 03:44:22;;;;;;;7.10;1.60;;;2.60;99.90;;;;;;4856452;29;20111;-77
2021/12/09 03:46:50;;;;;;;2.38;1.65;;;2.60;99.90;;;;;;4873072;29;20033;-79
2021/12/09 03:49:15;;;;;;;1.17;1.13;;;2.60;99.90;;;;;;4870845;29;20111;-77
2021/12/09 03:51:41;;;;;;;2.08;1.33;;;2.60;99.90;;;;;;4877279;29;20041;-78
2021/12/09 03:54:09;;;;;;;2.97;1.98;;;2.60;99.90;;;;;;4873027;29;20064;-78
2021/12/09 03:56:35;;;;;;;1.55;1.45;;;2.60;99.90;;;;;;4870618;29;20033;-77
2021/12/09 03:59:03;;;;;;;3.78;1.40;;;2.60;99.90;;;;;;4870671;29;20029;-76
2021/12/09 04:01:29;;;;;;;1.67;1.05;;;2.60;99.90;;;;;;4895151;29;20025;-77
2021/12/09 04:03:55;;;;;;;1.88;1.75;;;2.60;99.90;;;;;;4871802;29;20422;-79
2021/12/09 04:06:21;;;;;;;3.65;1.92;;;2.70;99.90;;;;;;4871818;29;20044;-78
2021/12/09 04:08:48;;;;;;;2.83;1.23;;;2.70;99.90;;;;;;4870555;29;20139;-77
2021/12/09 04:11:15;;;;;;;7.50;1.42;;;2.70;99.90;;;;;;4871726;29;20265;-76
2021/12/09 04:13:41;;;;;;;2.00;1.00;;;2.70;99.90;;;;;;4855097;29;20363;-77
2021/12/09 04:16:07;;;;;;;7.10;2.05;;;2.70;99.90;;;;;;4871378;29;20035;-76
2021/12/09 04:18:38;;;;;;;1.33;1.13;;;2.70;99.90;;;;;;4871434;29;20125;-77
2021/12/09 04:21:04;;;;;;;3.88;2.08;;;2.60;99.90;;;;;;4871141;29;20040;-76
2021/12/09 04:23:31;;;;;;;2.13;1.13;;;2.60;99.90;;;;;;4871331;29;20032;-77
2021/12/09 04:25:57;;;;;;;1.58;1.48;;;2.70;99.90;;;;;;4854698;29;20022;-76
2021/12/09 04:28:24;;;;;;;5.47;1.48;;;2.60;99.90;;;;;;4875190;29;20047;-77
2021/12/09 04:30:49;;;;;;;3.83;1.20;;;2.60;99.90;;;;;;4877232;29;20029;-76
2021/12/09 04:33:15;;;;;;;1.75;1.35;;;2.70;99.90;;;;;;4861068;29;20033;-76
2021/12/09 04:35:41;;;;;;;12.85;2.30;;;2.60;99.90;;;;;;4878171;29;20052;-78
2021/12/09 04:38:07;;;;;;;1.83;1.30;;;2.60;99.90;;;;;;4861765;29;20057;-77
2021/12/09 04:40:33;;;;;;;2.75;2.40;;;2.70;99.90;;;;;;4861697;29;20029;-79
2021/12/09 04:43:00;;;;;;;2.83;2.35;;;2.70;99.90;;;;;;4878661;29;20461;-76
2021/12/09 04:45:27;;;;;;;0.88;0.88;;;2.70;99.90;;;;;;4861119;29;20155;-76
2021/12/09 04:47:53;;;;;;;1.33;1.23;;;2.70;99.90;;;;;;4877773;29;20041;-77
2021/12/09 04:50:19;;;;;;;1.52;1.05;;;2.70;99.90;;;;;;4864787;29;20025;-80
2021/12/09 04:52:44;;;;;;;2.38;1.65;;;2.70;99.90;;;;;;4861268;29;20032;-79
2021/12/09 04:55:11;;;;;;;1.95;1.05;;;2.70;99.90;;;;;;4876611;29;20025;-78
2021/12/09 04:57:39;;;;;;;2.72;1.48;;;2.70;99.90;;;;;;4876740;29;20063;-77
2021/12/09 05:00:08;;;;;;;14.25;1.67;;;2.70;99.90;;;;;;4876966;29;20392;-76
2021/12/09 05:03:03;;;;;;;2.65;1.25;;;2.70;99.90;;;;;;4877716;29;20040;-76
2021/12/09 05:05:23;;;;;;;2.30;1.00;;;2.70;99.90;;;;;;4877475;29;20040;-77
2021/12/09 05:07:48;;;;;;;5.93;1.90;;;2.70;99.90;;;;;;4863389;29;20133;-77
2021/12/09 05:10:15;;;;;;;3.25;0.88;;;1.00;99.90;;;;;;4877753;29;20064;-76
2021/12/09 05:12:40;;;;;;;4.15;1.85;;;2.70;99.90;;;;;;4861052;29;20116;-76
2021/12/09 05:15:07;;;;;;;1.92;1.13;;;2.70;99.90;;;;;;4861140;29;20108;-77
2021/12/09 05:17:33;;;;;;;2.33;1.48;;;2.70;99.90;;;;;;4877630;29;20031;-78
2021/12/09 05:19:58;;;;;;;4.45;1.42;;;2.60;99.90;;;;;;4877066;29;20032;-77
2021/12/09 05:22:25;;;;;;;4.20;1.67;;;2.70;99.90;;;;;;4877777;29;20522;-79
2021/12/09 05:24:52;;;;;;;1.13;0.95;;;2.70;99.90;;;;;;4877593;29;20032;-76
2021/12/09 05:27:19;;;;;;;2.03;0.95;;;2.70;99.90;;;;;;4876295;29;20402;-78
2021/12/09 05:29:52;;;;;;;4.95;1.75;;;2.70;99.90;;;;;;4877019;29;20037;-76
2021/12/09 05:32:20;;;;;;;2.65;1.73;;;2.60;99.90;;;;;;4877147;29;20257;-77
2021/12/09 05:34:48;;;;;;;1.67;1.35;;;2.60;99.90;;;;;;4877776;29;20029;-77
2021/12/09 05:37:21;;;;;;;1.63;1.45;;;2.60;99.90;;;;;;4877515;29;20088;-80
2021/12/09 05:39:49;;;;;;;2.92;1.10;;;2.70;99.90;;;;;;4877710;29;20124;-77
2021/12/09 05:42:17;;;;;;;7.57;1.42;;;2.70;99.90;;;;;;4860458;29;20025;-76
2021/12/09 05:44:43;;;;;;;1.40;1.25;;;2.70;99.90;;;;;;4860188;29;20081;-77
2021/12/09 05:47:10;;;;;;;1.17;1.17;;;2.60;99.90;;;;;;4859817;29;20036;-76
2021/12/09 05:49:38;;;;;;;4.22;1.67;;;2.60;99.90;;;;;;4864409;29;20520;-76
2021/12/09 05:52:05;;;;;;;3.60;1.10;;;2.60;99.90;;;;;;4841107;29;20036;-77
2021/12/09 05:54:31;;;;;;;1.80;1.23;;;2.60;99.90;;;;;;4872635;29;20025;-77
2021/12/09 05:56:58;;;;;;;2.70;2.03;;;2.60;99.90;;;;;;4857869;29;20025;-76
2021/12/09 05:59:25;;;;;;;4.03;2.35;;;2.60;99.90;;;;;;4841856;29;20479;-76
2021/12/09 06:01:50;;;;;;;1.13;0.90;;;2.70;99.90;;;;;;4841705;29;20037;-76
2021/12/09 06:04:16;;;;;;;0.50;0.50;;;2.70;99.90;;;;;;4872291;29;20074;-78
2021/12/09 06:06:42;;;;;;;2.40;1.85;;;2.60;99.90;;;;;;4858984;29;20108;-78
2021/12/09 06:09:11;;;;;;;4.30;1.38;;;2.60;99.90;;;;;;4858559;29;20060;-78
2021/12/09 06:11:41;;;;;;;5.23;2.00;;;2.60;99.90;;;;;;4841614;29;20098;-78
2021/12/09 06:14:08;;;;;;;9.57;1.38;;;2.70;99.90;;;;;;4872804;29;20098;-78
2021/12/09 06:16:34;;;;;;;5.47;1.33;;;2.70;99.90;;;;;;4872468;29;20115;-77
2021/12/09 06:19:01;;;;;;;2.88;1.50;;;2.70;99.90;;;;;;4858186;29;20117;-78
2021/12/09 06:21:28;;;;;;;0.35;0.35;;;2.70;99.90;;;;;;4856870;29;20022;-77
2021/12/09 06:23:59;;;;;;;3.58;1.60;;;2.70;99.90;;;;;;4857123;29;20026;-78
2021/12/09 06:26:26;;;;;;;4.05;1.80;;;2.70;99.90;;;;;;4856289;29;20479;-76
2021/12/09 06:28:51;;;;;;;1.65;0.90;;;2.70;99.90;;;;;;4870420;29;20474;-77
2021/12/09 06:31:18;;;;;;;1.25;1.15;;;2.70;99.90;;;;;;4839552;29;20078;-78
2021/12/09 06:33:43;;;;;;;1.42;1.13;;;2.70;99.90;;;;;;4839893;29;20120;-77
2021/12/09 06:36:09;;;;;;;2.90;1.95;;;2.70;99.90;;;;;;4843270;29;20105;-76
2021/12/09 06:38:35;;;;;;;9.23;0.85;;;2.70;99.90;;;;;;4872509;29;20041;-78
2021/12/09 06:41:01;;;;;;;1.83;1.00;;;2.60;99.90;;;;;;4840074;29;20423;-76
2021/12/09 06:43:27;;;;;;;1.23;0.90;;;2.60;99.90;;;;;;4839366;29;20182;-77
2021/12/09 06:45:55;;;;;;;5.78;1.60;;;2.70;99.90;;;;;;4856187;29;20018;-76
2021/12/09 06:48:21;;;;;;;1.55;0.93;;;2.70;99.90;;;;;;4856219;29;20042;-76
2021/12/09 06:50:47;;;;;;;6.32;1.27;;;2.70;99.90;;;;;;4856000;29;20026;-77
2021/12/09 06:53:14;;;;;;;1.65;0.93;;;2.70;99.90;;;;;;4856145;29;20025;-78
2021/12/09 06:55:41;;;;;;;2.17;1.40;;;2.70;99.90;;;;;;4855153;29;20085;-77
2021/12/09 06:58:07;;;;;;;2.38;1.38;;;2.70;99.90;;;;;;4840230;29;20032;-77
2021/12/09 07:00:34;;;;;;;5.47;1.80;;;2.80;99.90;;;;;;4857866;29;20026;-77
2021/12/09 07:03:02;;;;;;;3.50;1.52;;;2.80;99.90;;;;;;4858129;29;20029;-78
2021/12/09 07:05:29;;;;;;;0.82;0.82;;;2.80;99.90;;;;;;4841087;29;20383;-77
2021/12/09 07:07:55;;;;;;;3.53;1.33;;;2.80;99.90;;;;;;4836725;29;20059;-76
2021/12/09 07:10:22;;;;;;;2.22;1.20;;;2.70;99.90;;;;;;4855267;29;20034;-77
2021/12/09 07:12:48;;;;;;;2.25;0.88;;;2.80;99.90;;;;;;4840847;29;20029;-78
2021/12/09 07:15:16;;;;;;;3.50;1.58;;;2.70;99.90;;;;;;4871745;29;20415;-77
2021/12/09 07:17:42;;;;;;;0.68;0.68;;;2.70;99.90;;;;;;4873910;29;20037;-76
2021/12/09 07:20:13;;;;;;;2.58;1.23;;;2.70;99.90;;;;;;4873986;29;20029;-80
2021/12/09 07:22:39;;;;;;;1.58;1.25;;;2.60;99.90;;;;;;4883551;29;20028;-81
2021/12/09 07:25:06;;;;;;;1.52;1.42;;;2.80;99.90;;;;;;4890518;29;20480;-81
2021/12/09 07:27:32;;;;;;;1.90;1.02;;;2.80;99.90;;;;;;4915601;29;20037;-79
2021/12/09 07:29:57;;;;;;;5.28;1.40;;;2.70;99.90;;;;;;4882273;29;20575;-78
2021/12/09 07:32:23;;;;;;;2.47;1.73;;;2.80;99.90;;;;;;4903120;29;20024;-81
2021/12/09 07:34:49;;;;;;;7.35;1.70;;;2.80;99.90;;;;;;4882537;29;20040;-78
2021/12/09 07:37:14;;;;;;;4.68;1.27;;;1.80;99.90;;;;;;4895017;29;20043;-82
2021/12/09 07:39:40;;;;;;;2.58;1.48;;;2.70;99.90;;;;;;4874738;29;20061;-82
2021/12/09 07:42:06;;;;;;;4.45;1.90;;;2.80;99.90;;;;;;4865972;29;20033;-78
2021/12/09 07:44:32;;;;;;;3.00;1.52;;;2.80;99.90;;;;;;4861434;29;20515;-83
2021/12/09 07:46:59;;;;;;;1.80;1.30;;;2.90;99.90;;;;;;4878692;29;20028;-81
2021/12/09 07:49:26;;;;;;;2.90;1.40;;;2.80;99.90;;;;;;4862426;29;20233;-81
2021/12/09 07:51:53;;;;;;;0.70;0.70;;;2.90;99.90;;;;;;4876847;29;20059;-84
2021/12/09 07:54:19;;;;;;;3.90;1.50;;;2.90;99.90;;;;;;4879763;29;20080;-79
2021/12/09 07:56:48;;;;;;;2.80;2.33;;;2.90;99.90;;;;;;4901672;23;20150;-83
2021/12/09 07:59:15;;;;;;;2.07;1.17;;;2.90;99.90;;;;;;4918842;29;20020;-83
2021/12/09 08:01:41;;;;;;;1.55;1.38;;;2.90;99.90;;;;;;4917602;29;20100;-80
2021/12/09 08:04:35;;;;;;;3.03;2.15;;;2.90;99.90;;;;;;4909435;29;20028;-91
2021/12/09 08:07:02;;;;;;;3.72;1.38;;;0.70;99.90;;;;;;4905523;29;20505;-78
2021/12/09 08:09:28;;;;;;;4.60;1.85;;;2.90;99.90;;;;;;4898288;29;20048;-75
2021/12/09 08:11:54;;;;;;;1.83;1.63;;;2.90;99.90;;;;;;4894159;29;20051;-77
2021/12/09 08:14:20;;;;;;;2.30;1.50;;;2.90;99.90;;;;;;4896726;29;20036;-78
2021/12/09 08:16:56;;;;;;;1.95;0.88;;;2.90;99.90;;;;;;4898807;29;20059;-80
2021/12/09 08:19:22;;;;;;;0.73;0.70;;;3.00;99.90;;;;;;4900182;29;20055;-78
2021/12/09 08:21:47;;;;;;;1.95;1.40;;;3.00;99.90;;;;;;4916104;29;20500;-77
2021/12/09 08:24:13;;;;;;;2.65;1.80;;;3.00;99.90;;;;;;4902014;29;20121;-78
2021/12/09 08:26:39;;;;;;;4.15;1.58;;;3.00;99.90;;;;;;4916572;29;20024;-77
2021/12/09 08:29:05;;;;;;;2.80;1.35;;;3.00;99.90;;;;;;4914640;29;20067;-80
2021/12/09 08:31:33;;;;;;;1.27;0.95;;;3.00;99.90;;;;;;4913561;29;20114;-76
2021/12/09 08:34:02;;;;;;;1.10;1.05;;;3.00;99.90;;;;;;4912982;29;20473;-77
2021/12/09 08:36:28;;;;;;;0.90;0.85;;;2.90;99.90;;;;;;4913654;29;20028;-77
2021/12/09 08:38:54;;;;;;;0.85;0.80;;;2.90;99.90;;;;;;4915974;29;20031;-82
2021/12/09 08:41:24;;;;;;;1.13;1.05;;;2.90;99.90;;;;;;4939677;29;20017;-83
2021/12/09 08:43:49;;;;;;;3.13;0.75;;;2.90;99.90;;;;;;4924899;29;20035;-83
2021/12/09 08:46:17;;;;;;;1.02;0.85;;;2.90;99.90;;;;;;4919294;29;20028;-81
2021/12/09 08:48:43;;;;;;;0.88;0.88;;;3.10;99.90;;;;;;4921723;28;20028;-82
2021/12/09 08:51:09;;;;;;;7.10;1.15;;;2.90;99.90;;;;;;4919405;29;20028;-82
2021/12/09 08:53:39;;;;;;;1.15;1.05;;;3.00;99.90;;;;;;4922137;28;20020;-84
2021/12/09 08:56:05;;;;;;;4.15;2.15;;;2.30;99.90;;;;;;5072739;23;20056;-82
2021/12/09 08:58:59;;;;;;;2.40;1.25;;;3.50;99.90;;;;;;4907115;29;20044;-84
2021/12/09 09:01:24;;;;;;;3.03;2.13;;;2.90;99.90;;;;;;4890243;29;20020;-84
2021/12/09 09:03:50;;;;;;;0.80;0.75;;;1.90;99.90;;;;;;4905997;29;20021;-81
2021/12/09 09:06:16;;;;;;;1.70;1.48;;;3.40;99.90;;;;;;4887268;29;20025;-82
2021/12/09 09:08:42;;;;;;;2.20;1.08;;;3.10;99.90;;;;;;4899348;29;20039;-82
2021/12/09 09:11:08;;;;;;;4.38;1.65;;;3.10;99.90;;;;;;4901159;29;20021;-84
2021/12/09 09:13:35;;;;;;;2.58;2.00;;;3.10;99.90;;;;;;4906964;29;20019;-85
2021/12/09 09:16:12;;;;;;;2.72;2.25;;;5.20;99.90;;;;;;4916588;29;20025;-82
2021/12/09 09:18:38;;;;;;;3.63;2.88;;;3.00;99.90;;;;;;4917476;29;20020;-82
2021/12/09 09:21:06;;;;;;;2.03;1.85;;;3.50;99.90;;;;;;4903391;29;20040;-86
2021/12/09 09:23:37;;;;;;;2.10;1.50;;;3.50;99.90;;;;;;4906263;29;20041;-83
2021/12/09 09:28:38;;;;;;;2.53;1.92;;;3.00;99.90;;;;;;5191815;23;20087;-81
2021/12/09 09:31:05;;;;;;;2.00;1.77;;;0.30;99.90;;;;;;5156336;23;20103;-79
2021/12/09 09:33:32;;;;;;;3.47;1.90;;;3.10;99.90;;;;;;4926557;29;20166;-82
2021/12/09 09:35:58;;;;;;;2.05;1.38;;;3.10;99.90;;;;;;4920373;29;20035;-81
2021/12/09 09:38:26;;;;;;;0.60;0.60;;;3.10;99.90;;;;;;4916384;29;20481;-84
2021/12/09 09:41:10;;;;;;;0.93;0.93;;;3.20;99.90;;;;;;4916787;29;20292;-81
2021/12/09 09:46:20;;;;;;;;;;;3.30;99.90;;;;;;4957193;23;20028;-82
2021/12/09 09:48:48;;;;;;;1.95;1.10;;;3.60;99.90;;;;;;4935804;28;19923;-80
2021/12/09 09:51:17;;;;;;;5.35;1.52;;;3.40;99.90;;;;;;4931498;28;20555;-80
2021/12/09 09:53:43;;;;;;;1.08;1.02;;;3.40;99.90;;;;;;4938525;28;20039;-81
2021/12/09 09:56:15;;;;;;;3.92;1.65;;;3.50;99.90;;;;;;4924385;29;20127;-81
2021/12/09 09:58:51;;;;;;;2.63;2.00;;;3.60;99.90;;;;;;5190060;23;20037;-82
2021/12/09 10:01:18;;;;;;;1.17;1.10;;;3.60;99.90;;;;;;4942856;28;20028;-84
2021/12/09 10:03:47;;;;;;;4.97;1.42;;;3.60;99.90;;;;;;4916363;29;20078;-78
2021/12/09 10:06:15;;;;;;;1.98;1.73;;;3.60;99.90;;;;;;4932439;29;20047;-79
2021/12/09 10:08:41;;;;;;;3.92;1.13;;;3.60;99.90;;;;;;4931874;29;20038;-79
2021/12/09 10:11:08;;;;;;;2.88;1.42;;;3.60;99.90;;;;;;4932074;29;20036;-79
2021/12/09 10:13:39;;;;;;;5.28;1.33;;;3.60;99.90;;;;;;4914488;29;20032;-79
2021/12/09 10:16:25;;;;;;;2.45;0.93;;;3.70;99.90;;;;;;4947129;29;20034;-79
2021/12/09 10:18:52;;;;;;;1.08;0.95;;;3.70;99.90;;;;;;4949755;29;20712;-79
2021/12/09 10:21:28;;;;;;;4.22;1.40;;;3.70;99.90;;;;;;4948593;29;20066;-79
2021/12/09 10:24:12;;;;;;;3.35;0.98;;;3.70;99.90;;;;;;4932112;29;20062;-78
2021/12/09 10:26:46;;;;;;;3.33;1.50;;;3.70;99.90;;;;;;4949188;29;20023;-79
2021/12/09 10:29:13;;;;;;;1.08;0.98;;;3.80;99.90;;;;;;4931753;29;20037;-81
2021/12/09 10:31:41;;;;;;;2.42;1.40;;;3.70;99.90;;;;;;4931808;29;20305;-79
2021/12/09 10:34:40;;;;;;;2.60;1.75;;;3.70;99.90;;;;;;4932757;29;20039;-79
2021/12/09 10:37:20;;;;;;;3.03;1.73;;;3.70;99.90;;;;;;4930620;29;20110;-79
2021/12/09 10:40:02;;;;;;;5.13;1.55;;;3.80;99.90;;;;;;4932966;29;20058;-80
2021/12/09 10:42:43;;;;;;;4.32;1.52;;;3.70;99.90;;;;;;4951007;29;20080;-79
2021/12/09 10:45:25;;;;;;;0.88;0.77;;;3.60;99.90;;;;;;4934169;29;20090;-79
2021/12/09 10:48:06;;;;;;;1.73;1.50;;;3.70;99.90;;;;;;4933741;29;20020;-79
2021/12/09 10:55:51;;;;;;;2.10;1.85;;;4.00;99.90;;;;;;4954414;29;20344;-79
2021/12/09 10:58:20;;;;;;;1.58;1.48;;;4.00;99.90;;;;;;4937063;29;20075;-79
2021/12/09 11:00:57;;;;;;;0.50;0.50;;;4.00;99.90;;;;;;4937060;29;20385;-79
2021/12/09 11:03:28;;;;;;;2.85;0.90;;;4.10;99.90;;;;;;4954757;29;20035;-79
2021/12/09 11:06:04;;;;;;;1.77;1.67;;;4.20;99.90;;;;;;4954498;29;20487;-78
2021/12/09 11:08:57;;;;;;;1.27;1.13;;;4.30;99.90;;;;;;4940845;29;20035;-79
2021/12/09 11:11:28;;;;;;;1.55;0.80;;;4.10;99.90;;;;;;4939930;29;20400;-80
2021/12/09 11:13:54;;;;;;;0.70;0.50;;;4.10;99.90;;;;;;4955386;29;20023;-79
2021/12/09 11:16:24;;;;;;;0.95;0.93;;;4.00;99.90;;;;;;4925174;29;20035;-79
2021/12/09 11:18:55;;;;;;;3.17;1.20;;;4.00;99.90;;;;;;4920169;29;20380;-79
2021/12/09 11:21:28;;;;;;;4.03;0.82;;;3.80;99.90;;;;;;4947723;29;20097;-81
2021/12/09 11:24:01;;;;;;;1.65;1.17;;;3.70;99.90;;;;;;4933644;29;20039;-82
2021/12/09 11:29:43;;;;;;;3.50;0.90;;;3.70;99.90;;;;;;4956310;28;20044;-81
2021/12/09 11:32:24;;;;;;;1.88;0.82;;;6.10;99.90;;;;;;4934393;29;20228;-83
2021/12/09 11:35:12;;;;;;;0.52;0.52;;;2.30;99.90;;;;;;4929777;28;20051;-80
2021/12/09 11:37:51;;;;;;;1.13;0.95;;;3.90;99.90;;;;;;4956765;28;20031;-81
2021/12/09 11:40:36;;;;;;;0.73;0.73;;;3.90;99.90;;;;;;4964347;28;20031;-82
2021/12/09 11:43:04;;;;;;;6.50;1.88;;;1.00;99.90;;;;;;4951669;28;20031;-82
2021/12/09 11:45:59;;;;;;;0.60;0.60;;;3.90;99.90;;;;;;4961139;28;20094;-83
2021/12/09 11:48:31;;;;;;;2.55;1.05;;;4.40;99.90;;;;;;4953777;28;20472;-79
2021/12/09 11:50:57;;;;;;;3.80;0.70;;;4.10;99.90;;;;;;4953441;29;20039;-79
2021/12/09 11:53:33;;;;;;;0.93;0.47;;;4.10;99.90;;;;;;4953998;28;20022;-79
2021/12/09 11:56:08;;;;;;;0.65;0.65;;;4.10;99.90;;;;;;4952156;28;20078;-78
2021/12/09 11:58:43;;;;;;;6.18;0.40;;;4.20;99.90;;;;;;4939901;28;20103;-80
2021/12/09 12:12:51;;;;;;;10.57;1.02;;;4.50;99.90;;;;;;4951870;28;20020;-79
2021/12/09 12:20:50;;;;;;;2.10;0.98;;;4.70;99.90;;;;;;4950011;29;20488;-79
2021/12/09 12:40:31;;;;;;;0.73;0.73;;;4.50;99.90;;;;;;4950451;29;20039;-79
2021/12/09 12:43:03;;;;;;;4.75;0.65;;;4.70;99.90;;;;;;4934035;29;20031;-79
2021/12/09 12:50:33;;;;;;;2.55;0.55;;;4.50;99.90;;;;;;4950659;29;20054;-79
2021/12/09 12:53:34;;;;;;;0.35;0.35;;;4.50;99.90;;;;;;4952314;29;20027;-79
2021/12/09 12:56:24;;;;;;;0.90;0.82;;;4.50;99.90;;;;;;4950804;29;20030;-79
2021/12/09 12:59:18;;;;;;;0.50;0.50;;;4.40;99.90;;;;;;4950715;28;20047;-79
2021/12/09 13:01:53;;;;;;;1.17;0.57;;;4.30;99.90;;;;;;4927241;29;20122;-79
2021/12/09 13:04:50;;;;;;;1.23;1.13;;;4.70;99.90;;;;;;4933410;29;20037;-79
2021/12/09 13:07:28;;;;;;;0.57;0.50;;;5.20;99.90;;;;;;4951189;29;20047;-79
2021/12/09 13:10:23;;;;;;;1.10;0.65;;;5.50;99.90;;;;;;4934496;29;20042;-79
2021/12/09 13:13:07;;;;;;;2.00;1.38;;;5.60;99.90;;;;;;4951903;29;20023;-79
2021/12/09 13:15:48;;;;;;;9.88;1.13;;;5.20;99.90;;;;;;4943129;29;20027;-79
2021/12/09 13:21:40;;;;;;;0.75;0.65;;;4.40;99.90;;;;;;4931674;29;20027;-79
2021/12/09 13:24:49;;;;;;;3.72;0.70;;;4.40;99.90;;;;;;4914040;29;20031;-79
2021/12/09 13:47:46;;;;;;;0.85;0.68;;;4.00;99.90;;;;;;4931190;29;20050;-79
2021/12/09 13:55:36;;;;;;;0.60;0.60;;;4.30;99.90;;;;;;4932058;29;20114;-79
2021/12/09 13:58:05;;;;;;;2.30;0.73;;;5.10;99.90;;;;;;4931489;29;20098;-79
2021/12/09 14:00:43;;;;;;;0.65;0.50;;;5.60;99.90;;;;;;4913263;29;20056;-79
2021/12/09 14:03:24;;;;;;;2.30;0.77;;;5.60;99.90;;;;;;4913408;29;20039;-79
2021/12/09 14:05:54;;;;;;;2.95;0.82;;;5.00;99.90;;;;;;4913386;29;20509;-79
2021/12/09 14:08:29;;;;;;;8.88;1.02;;;4.40;99.90;;;;;;4915071;29;20027;-79
2021/12/09 14:11:02;;;;;;;0.50;0.50;;;4.20;99.90;;;;;;4933131;29;20055;-80
2021/12/09 14:13:29;;;;;;;3.40;0.70;;;4.10;99.90;;;;;;4914058;29;20448;-79
2021/12/09 14:18:24;;;;;;;0.38;0.38;;;5.10;99.90;;;;;;4950120;29;20118;-80
2021/12/09 14:20:50;;;;;;;2.35;1.13;;;5.90;99.90;;;;;;4931935;29;20031;-79
2021/12/09 14:23:17;;;;;;;1.58;1.48;;;6.30;99.90;;;;;;4943206;29;20472;-78
2021/12/09 14:25:43;;;;;;;2.30;0.90;;;6.30;99.90;;;;;;4933150;29;20031;-79
2021/12/09 14:28:12;;;;;;;0.32;0.32;;;5.90;99.90;;;;;;4935678;29;20403;-78
2021/12/09 14:30:39;;;;;;;0.30;0.30;;;5.70;99.90;;;;;;4953437;29;20039;-80
2021/12/09 14:33:05;;;;;;;2.92;1.05;;;5.90;99.90;;;;;;4956726;29;20488;-78